Time;durP1;ratioP1;P1;durP2;ratioP2;P2;SDS_P1;SDS_P2;PMS_P1;PMS_P2;Temp;Humidity;BMP_temperature;BMP_pressure;BME280_temperature;BME280_humidity;BME280_pressure;Samples;Min_cycle;Max_cycle;Signal;HPM_P1;HPM_P2
2022/10/06 00:00:46;;;;;;;1.25;0.85;;;20.70;47.50;;;;;;5156308;27;20069;-11
2022/10/06 00:03:12;;;;;;;0.98;0.98;;;20.80;47.60;;;;;;5156393;27;20536;-11
2022/10/06 00:05:37;;;;;;;1.02;0.90;;;20.80;47.60;;;;;;5156291;27;20482;-11
2022/10/06 00:08:03;;;;;;;1.05;1.00;;;20.70;47.50;;;;;;5155680;27;20051;-11
2022/10/06 00:10:30;;;;;;;1.10;1.00;;;20.70;47.60;;;;;;5156048;27;20057;-11
2022/10/06 00:12:56;;;;;;;0.85;0.85;;;20.70;47.60;;;;;;5156268;27;20043;-11
2022/10/06 00:15:25;;;;;;;1.48;1.15;;;20.70;47.50;;;;;;5156067;27;20103;-11
2022/10/06 00:17:51;;;;;;;1.48;1.05;;;20.70;47.60;;;;;;5156069;27;20482;-11
2022/10/06 00:20:18;;;;;;;1.10;1.00;;;20.70;47.60;;;;;;5155803;27;20042;-11
2022/10/06 00:22:45;;;;;;;1.05;1.00;;;20.70;47.50;;;;;;5156486;27;20071;-11
2022/10/06 00:25:14;;;;;;;1.20;1.08;;;20.70;47.60;;;;;;5156307;27;20047;-11
2022/10/06 00:27:42;;;;;;;1.00;0.90;;;20.70;47.60;;;;;;5155875;27;20382;-11
2022/10/06 00:30:11;;;;;;;0.80;0.80;;;20.70;47.60;;;;;;5155806;27;20058;-11
2022/10/06 00:32:38;;;;;;;1.25;1.10;;;20.70;47.60;;;;;;5156056;27;20055;-11
2022/10/06 00:35:07;;;;;;;0.82;0.80;;;20.70;47.60;;;;;;5156134;27;20058;-11
2022/10/06 00:37:35;;;;;;;0.80;0.80;;;20.70;47.60;;;;;;5155844;27;20051;-11
2022/10/06 00:40:05;;;;;;;1.08;0.98;;;20.70;47.60;;;;;;5155655;27;20414;-11
2022/10/06 00:42:31;;;;;;;1.23;1.10;;;20.70;47.60;;;;;;5155531;27;20476;-11
2022/10/06 00:45:01;;;;;;;0.90;0.90;;;20.70;47.70;;;;;;5156224;27;20051;-11
2022/10/06 00:47:29;;;;;;;1.40;0.95;;;20.70;47.70;;;;;;5136648;27;20052;-11
2022/10/06 00:49:56;;;;;;;0.93;0.80;;;20.70;47.70;;;;;;5155495;27;20054;-11
2022/10/06 00:52:26;;;;;;;0.90;0.90;;;20.70;47.70;;;;;;5136893;27;20146;-11
2022/10/06 00:54:51;;;;;;;1.05;0.98;;;20.70;47.70;;;;;;5156127;27;20086;-11
2022/10/06 00:57:20;;;;;;;1.02;1.00;;;20.70;47.70;;;;;;5155465;27;20077;-12
2022/10/06 00:59:46;;;;;;;0.98;0.93;;;20.70;47.70;;;;;;5155678;27;20493;-11
2022/10/06 01:02:16;;;;;;;1.00;1.00;;;20.70;47.70;;;;;;5136774;27;20145;-11
2022/10/06 01:04:49;;;;;;;1.20;1.10;;;20.70;47.70;;;;;;5155692;27;20047;-11
2022/10/06 01:07:17;;;;;;;1.15;1.05;;;20.70;47.70;;;;;;5155156;27;20051;-12
2022/10/06 01:09:43;;;;;;;1.00;0.90;;;20.70;47.70;;;;;;5137167;27;20089;-11
2022/10/06 01:12:09;;;;;;;1.40;1.00;;;20.70;47.60;;;;;;5155257;27;20074;-11
2022/10/06 01:14:38;;;;;;;1.10;1.00;;;20.70;47.70;;;;;;5155797;27;20055;-11
2022/10/06 01:17:14;;;;;;;1.10;1.00;;;20.70;47.70;;;;;;5154658;27;20406;-11
2022/10/06 01:20:07;;;;;;;0.75;0.75;;;20.70;47.70;;;;;;5135548;27;20089;-11
2022/10/06 01:22:36;;;;;;;0.90;0.90;;;20.70;47.70;;;;;;5155027;27;20051;-11
2022/10/06 01:25:04;;;;;;;0.70;0.70;;;20.70;47.80;;;;;;5155445;27;20065;-11
2022/10/06 01:27:32;;;;;;;1.00;0.80;;;20.70;47.80;;;;;;5136126;27;20406;-11
2022/10/06 01:29:59;;;;;;;0.90;0.90;;;20.70;48.30;;;;;;5136125;27;20462;-11
2022/10/06 01:32:30;;;;;;;0.82;0.82;;;20.70;47.80;;;;;;5136615;27;20142;-11
2022/10/06 01:34:57;;;;;;;0.98;0.90;;;20.60;47.80;;;;;;5136622;27;20095;-11
2022/10/06 01:37:23;;;;;;;1.05;1.00;;;20.60;47.80;;;;;;5154707;27;20402;-12
2022/10/06 01:39:48;;;;;;;0.80;0.80;;;20.60;47.80;;;;;;5155318;27;20055;-11
2022/10/06 01:42:14;;;;;;;1.00;0.90;;;20.60;47.80;;;;;;5154921;27;20047;-11
2022/10/06 01:44:39;;;;;;;0.80;0.80;;;20.60;47.90;;;;;;5136034;27;20046;-11
2022/10/06 01:47:06;;;;;;;0.93;0.90;;;20.60;47.90;;;;;;5136634;27;20402;-11
2022/10/06 01:49:31;;;;;;;1.17;1.05;;;20.60;47.80;;;;;;5154624;27;20490;-11
2022/10/06 01:51:57;;;;;;;0.88;0.88;;;20.60;47.90;;;;;;5154946;27;20043;-11
2022/10/06 01:54:23;;;;;;;0.82;0.80;;;20.60;47.90;;;;;;5135891;27;20135;-11
2022/10/06 01:56:48;;;;;;;1.05;1.05;;;20.60;47.90;;;;;;5154378;27;20051;-11
2022/10/06 01:59:15;;;;;;;1.08;0.98;;;20.60;47.90;;;;;;5154525;27;20068;-11
2022/10/06 02:01:40;;;;;;;2.53;1.02;;;20.60;47.90;;;;;;5136324;27;20054;-11
2022/10/06 02:04:06;;;;;;;0.93;0.93;;;20.60;47.90;;;;;;5134843;27;20051;-11
2022/10/06 02:06:33;;;;;;;0.90;0.90;;;20.60;47.90;;;;;;5135669;27;20058;-11
2022/10/06 02:08:59;;;;;;;0.80;0.80;;;20.60;47.90;;;;;;5154042;27;20100;-11
2022/10/06 02:11:25;;;;;;;0.90;0.90;;;20.60;48.00;;;;;;5154812;27;20103;-11
2022/10/06 02:13:52;;;;;;;0.90;0.80;;;20.60;48.00;;;;;;5154018;27;20055;-11
2022/10/06 02:16:18;;;;;;;0.88;0.88;;;20.60;48.00;;;;;;5154154;27;20054;-11
2022/10/06 02:18:44;;;;;;;0.80;0.80;;;20.60;48.00;;;;;;5135344;27;20094;-11
2022/10/06 02:21:15;;;;;;;1.15;0.90;;;20.60;48.00;;;;;;5153900;27;20050;-11
2022/10/06 02:23:41;;;;;;;0.60;0.60;;;20.60;48.00;;;;;;5154219;27;20047;-11
2022/10/06 02:26:06;;;;;;;0.98;0.93;;;20.60;48.00;;;;;;5154122;27;20054;-11
2022/10/06 02:28:34;;;;;;;0.80;0.80;;;20.60;48.00;;;;;;5135395;27;20054;-11
2022/10/06 02:31:07;;;;;;;1.10;1.00;;;20.60;47.90;;;;;;5136220;27;20141;-11
2022/10/06 02:33:33;;;;;;;;;;;20.60;48.00;;;;;;5158296;27;20042;-11
2022/10/06 02:35:59;;;;;;;0.90;0.90;;;20.60;48.00;;;;;;5139398;27;20354;-11
2022/10/06 02:38:27;;;;;;;0.70;0.70;;;20.60;48.00;;;;;;5139012;27;20473;-11
2022/10/06 02:40:53;;;;;;;1.45;1.08;;;20.60;48.00;;;;;;5138884;27;20137;-11
2022/10/06 02:43:21;;;;;;;0.93;0.90;;;20.60;48.00;;;;;;5139118;27;20461;-11
2022/10/06 02:45:54;;;;;;;0.80;0.80;;;20.60;48.00;;;;;;5139416;27;20444;-11
2022/10/06 02:48:21;;;;;;;0.85;0.75;;;20.50;48.00;;;;;;5157531;27;20051;-11
2022/10/06 02:50:56;;;;;;;0.70;0.70;;;20.60;48.10;;;;;;5157559;27;20089;-11
2022/10/06 02:53:24;;;;;;;1.02;0.82;;;20.60;48.10;;;;;;5138900;27;20050;-11
2022/10/06 02:55:49;;;;;;;1.00;0.90;;;20.60;48.10;;;;;;5138731;27;20039;-11
2022/10/06 02:58:15;;;;;;;0.88;0.88;;;20.60;48.00;;;;;;5157189;27;20073;-12
2022/10/06 03:00:41;;;;;;;1.20;0.90;;;20.60;48.10;;;;;;5138585;27;20125;-11
2022/10/06 03:03:07;;;;;;;1.98;0.85;;;20.50;48.10;;;;;;5136607;27;20138;-11
2022/10/06 03:05:32;;;;;;;0.88;0.88;;;20.60;48.10;;;;;;5157212;27;20087;-11
2022/10/06 03:07:58;;;;;;;1.10;1.00;;;20.60;48.00;;;;;;5138671;27;20467;-12
2022/10/06 03:10:24;;;;;;;0.80;0.80;;;20.60;47.90;;;;;;5136612;27;20047;-11
2022/10/06 03:12:49;;;;;;;0.88;0.88;;;20.60;47.90;;;;;;5157144;27;20055;-11
2022/10/06 03:15:15;;;;;;;0.88;0.88;;;20.60;48.00;;;;;;5138981;27;20142;-11
2022/10/06 03:17:41;;;;;;;0.90;0.90;;;20.60;47.90;;;;;;5138407;27;20558;-12
2022/10/06 03:20:07;;;;;;;1.00;1.00;;;20.70;47.80;;;;;;5138117;27;20046;-11
2022/10/06 03:22:33;;;;;;;0.90;0.90;;;20.70;47.80;;;;;;5157027;27;20406;-11
2022/10/06 03:24:58;;;;;;;0.90;0.80;;;20.70;47.70;;;;;;5156768;27;20085;-11
2022/10/06 03:27:24;;;;;;;1.10;1.00;;;20.70;47.70;;;;;;5138155;27;20479;-11
2022/10/06 03:29:53;;;;;;;1.08;1.00;;;20.80;47.70;;;;;;5137996;27;20043;-11
2022/10/06 03:32:22;;;;;;;1.15;1.00;;;20.80;47.60;;;;;;5138202;27;20095;-11
2022/10/06 03:34:49;;;;;;;0.70;0.70;;;20.80;47.60;;;;;;5138671;27;20047;-12
2022/10/06 03:37:15;;;;;;;0.70;0.63;;;20.80;47.60;;;;;;5136978;27;20068;-11
2022/10/06 03:39:40;;;;;;;1.10;1.00;;;20.80;47.50;;;;;;5137964;27;20528;-11
2022/10/06 03:42:06;;;;;;;0.80;0.80;;;20.90;47.50;;;;;;5137644;27;20109;-11
2022/10/06 03:44:33;;;;;;;0.95;0.70;;;20.90;47.50;;;;;;5155906;27;20111;-11
2022/10/06 03:47:00;;;;;;;1.10;0.90;;;20.90;47.40;;;;;;5138291;27;20099;-11
2022/10/06 03:49:25;;;;;;;0.95;0.95;;;20.90;47.40;;;;;;5137835;27;20046;-11
2022/10/06 03:51:53;;;;;;;0.70;0.70;;;20.90;47.30;;;;;;5138434;27;20062;-11
2022/10/06 03:54:22;;;;;;;0.93;0.90;;;21.00;47.30;;;;;;5138209;27;20051;-11
2022/10/06 03:56:49;;;;;;;1.10;1.00;;;21.00;47.30;;;;;;5138359;27;20058;-11
2022/10/06 03:59:18;;;;;;;1.88;0.85;;;20.90;47.20;;;;;;5156229;27;20177;-11
2022/10/06 04:01:47;;;;;;;1.52;0.90;;;21.00;47.20;;;;;;5137752;27;20049;-11
2022/10/06 04:04:17;;;;;;;1.55;0.90;;;21.00;47.20;;;;;;5138149;27;20137;-11
2022/10/06 04:06:47;;;;;;;1.27;1.08;;;21.00;47.20;;;;;;5137714;27;20394;-11
2022/10/06 04:09:16;;;;;;;1.00;0.90;;;21.00;47.30;;;;;;5137654;27;20046;-11
2022/10/06 04:11:44;;;;;;;0.80;0.80;;;21.00;47.20;;;;;;5137571;27;20211;-11
2022/10/06 04:14:14;;;;;;;0.80;0.80;;;21.00;47.20;;;;;;5138004;27;20475;-11
2022/10/06 04:16:43;;;;;;;0.80;0.80;;;21.00;47.20;;;;;;5136798;27;20058;-11
2022/10/06 04:19:11;;;;;;;0.80;0.80;;;21.00;47.20;;;;;;5136381;27;20039;-11
2022/10/06 04:21:46;;;;;;;1.45;0.95;;;21.00;47.20;;;;;;5137777;27;20050;-11
2022/10/06 04:24:17;;;;;;;0.88;0.80;;;21.00;47.30;;;;;;5120612;27;20060;-11
2022/10/06 04:26:45;;;;;;;0.80;0.68;;;21.00;47.30;;;;;;5137304;27;20053;-11
2022/10/06 04:29:12;;;;;;;0.80;0.80;;;21.00;47.30;;;;;;5136477;27;20054;-11
2022/10/06 04:31:39;;;;;;;0.73;0.73;;;21.00;47.20;;;;;;5137733;27;20471;-11
2022/10/06 04:34:12;;;;;;;1.08;0.80;;;21.00;47.20;;;;;;5135496;27;20498;-11
2022/10/06 04:36:40;;;;;;;0.65;0.65;;;21.00;47.20;;;;;;5137585;27;20047;-11
2022/10/06 04:39:11;;;;;;;0.80;0.80;;;21.00;47.30;;;;;;5135817;27;20394;-11
2022/10/06 04:41:40;;;;;;;0.80;0.80;;;21.00;47.30;;;;;;5136564;27;20050;-11
2022/10/06 04:44:07;;;;;;;0.80;0.80;;;21.00;47.30;;;;;;5155451;27;20490;-11
2022/10/06 04:46:33;;;;;;;0.85;0.85;;;21.00;47.30;;;;;;5136832;27;20094;-11
2022/10/06 04:48:59;;;;;;;0.80;0.80;;;21.00;47.20;;;;;;5135632;27;20058;-11
2022/10/06 04:51:27;;;;;;;0.70;0.70;;;21.00;47.30;;;;;;5135686;27;20134;-11
2022/10/06 04:53:53;;;;;;;0.82;0.82;;;21.00;47.30;;;;;;5134822;27;20138;-11
2022/10/06 04:56:23;;;;;;;0.70;0.70;;;20.90;47.30;;;;;;5136185;27;20498;-11
2022/10/06 04:58:50;;;;;;;0.70;0.68;;;21.00;47.40;;;;;;5135448;27;20104;-11
2022/10/06 05:01:28;;;;;;;0.90;0.90;;;21.00;47.40;;;;;;5137098;27;20051;-11
2022/10/06 05:03:57;;;;;;;0.93;0.93;;;21.00;47.40;;;;;;5136143;27;20060;-11
2022/10/06 05:06:42;;;;;;;0.90;0.80;;;20.90;47.30;;;;;;5137191;27;20095;-11
2022/10/06 05:09:15;;;;;;;0.80;0.80;;;20.90;47.30;;;;;;5136602;27;20055;-11
2022/10/06 05:11:49;;;;;;;0.77;0.77;;;20.90;47.30;;;;;;5136678;27;20047;-11
2022/10/06 05:14:17;;;;;;;0.90;0.90;;;20.90;47.30;;;;;;5134936;27;20555;-11
2022/10/06 05:16:47;;;;;;;0.85;0.85;;;20.90;47.40;;;;;;5136300;27;20054;-12
2022/10/06 05:19:14;;;;;;;0.82;0.82;;;20.90;47.40;;;;;;5136528;27;20122;-11
2022/10/06 05:21:40;;;;;;;0.98;0.95;;;20.90;47.40;;;;;;5135801;27;20063;-11
2022/10/06 05:24:09;;;;;;;0.75;0.70;;;20.90;47.40;;;;;;5135063;27;20068;-11
2022/10/06 05:26:35;;;;;;;0.80;0.80;;;20.90;47.40;;;;;;5136377;27;20390;-11
2022/10/06 05:29:04;;;;;;;0.95;0.80;;;20.90;47.40;;;;;;5134498;27;20050;-11
2022/10/06 05:31:32;;;;;;;0.98;0.90;;;20.90;47.40;;;;;;5136577;27;20402;-12
2022/10/06 05:34:00;;;;;;;0.70;0.70;;;20.90;47.40;;;;;;5136261;27;20493;-11
2022/10/06 05:36:29;;;;;;;0.98;0.90;;;20.90;47.40;;;;;;5136664;27;20493;-11
2022/10/06 05:38:56;;;;;;;0.70;0.70;;;21.00;47.40;;;;;;5135452;27;20101;-11
2022/10/06 05:41:30;;;;;;;0.85;0.80;;;20.90;47.40;;;;;;5136159;27;20046;-11
2022/10/06 05:43:58;;;;;;;0.90;0.90;;;20.90;47.40;;;;;;5135249;27;20192;-11
2022/10/06 05:46:27;;;;;;;0.85;0.85;;;20.90;47.40;;;;;;5136025;27;20057;-11
2022/10/06 05:48:57;;;;;;;1.20;1.10;;;20.90;47.40;;;;;;5134870;27;20051;-11
2022/10/06 05:51:28;;;;;;;0.95;0.90;;;20.90;47.40;;;;;;5136356;27;20685;-11
2022/10/06 05:53:54;;;;;;;1.30;1.00;;;21.00;47.40;;;;;;5154817;27;20428;-11
2022/10/06 05:56:23;;;;;;;0.90;0.90;;;21.00;47.40;;;;;;5135456;27;20050;-11
2022/10/06 05:58:53;;;;;;;0.90;0.90;;;21.00;47.30;;;;;;5154200;27;20046;-11
2022/10/06 06:01:23;;;;;;;1.17;0.90;;;21.00;47.20;;;;;;5135139;27;20079;-11
2022/10/06 06:03:55;;;;;;;0.80;0.80;;;21.00;47.20;;;;;;5134736;27;20474;-11
2022/10/06 06:06:29;;;;;;;0.85;0.80;;;21.00;47.20;;;;;;5134187;27;20622;-11
2022/10/06 06:09:01;;;;;;;1.08;0.90;;;21.10;47.10;;;;;;5133976;27;20055;-12
2022/10/06 06:11:30;;;;;;;0.98;0.93;;;21.10;47.00;;;;;;5135965;27;20047;-11
2022/10/06 06:13:56;;;;;;;1.00;0.90;;;21.20;46.90;;;;;;5135089;27;20047;-11
2022/10/06 06:16:23;;;;;;;0.80;0.80;;;21.20;47.30;;;;;;5135228;27;20051;-11
2022/10/06 06:18:49;;;;;;;1.08;0.95;;;21.30;46.70;;;;;;5153808;27;20055;-11
2022/10/06 06:21:16;;;;;;;0.80;0.80;;;21.30;46.60;;;;;;5136095;27;20436;-12
2022/10/06 06:23:45;;;;;;;1.02;0.80;;;21.40;46.50;;;;;;5135244;27;20050;-12
2022/10/06 06:26:22;;;;;;;0.70;0.70;;;21.40;46.40;;;;;;5134808;27;20062;-12
2022/10/06 06:28:52;;;;;;;1.05;0.90;;;21.50;46.30;;;;;;5133402;27;20053;-12
2022/10/06 06:31:26;;;;;;;0.80;0.80;;;21.50;46.20;;;;;;5135326;27;20073;-12
2022/10/06 06:33:55;;;;;;;0.90;0.90;;;21.60;46.10;;;;;;5133998;27;20462;-12
2022/10/06 06:36:26;;;;;;;0.80;0.80;;;21.60;46.00;;;;;;5154201;27;20123;-12
2022/10/06 06:38:56;;;;;;;0.75;0.75;;;21.70;45.90;;;;;;5133508;27;20051;-12
2022/10/06 06:41:30;;;;;;;0.90;0.90;;;21.80;45.80;;;;;;5153927;27;20458;-12
2022/10/06 06:44:05;;;;;;;0.82;0.80;;;21.80;45.70;;;;;;5133583;27;20061;-12
2022/10/06 06:46:36;;;;;;;0.80;0.80;;;21.90;45.60;;;;;;5135408;27;20054;-12
2022/10/06 06:49:06;;;;;;;0.73;0.73;;;21.90;45.50;;;;;;5133209;27;20082;-12
2022/10/06 06:51:39;;;;;;;1.10;0.98;;;21.90;45.50;;;;;;5133480;27;20134;-12
2022/10/06 06:54:06;;;;;;;0.70;0.70;;;22.00;45.40;;;;;;5135253;27;20100;-12
2022/10/06 06:56:34;;;;;;;1.35;0.95;;;22.00;45.30;;;;;;5134629;27;20043;-12
2022/10/06 06:59:09;;;;;;;0.77;0.77;;;22.10;45.20;;;;;;5134583;27;20055;-12
2022/10/06 07:01:37;;;;;;;0.70;0.70;;;22.10;45.10;;;;;;5135105;27;20054;-12
2022/10/06 07:04:04;;;;;;;1.00;0.82;;;22.10;45.10;;;;;;5134713;27;20971;-12
2022/10/06 07:06:36;;;;;;;0.63;0.60;;;22.10;45.00;;;;;;5133804;27;20047;-12
2022/10/06 07:09:02;;;;;;;1.30;0.80;;;22.20;45.50;;;;;;5153427;27;20053;-12
2022/10/06 07:11:34;;;;;;;0.93;0.85;;;22.20;44.90;;;;;;5133234;27;20479;-12
2022/10/06 07:14:11;;;;;;;0.82;0.82;;;22.30;44.90;;;;;;5133596;27;20168;-12
2022/10/06 07:25:16;;;;;;;0.63;0.63;;;22.50;44.50;;;;;;5138574;27;20051;-11
2022/10/06 07:27:49;;;;;;;0.85;0.82;;;22.40;44.60;;;;;;5136431;27;20051;-11
2022/10/06 07:30:22;;;;;;;1.00;0.90;;;22.40;44.80;;;;;;5138506;27;20482;-11
2022/10/06 07:32:54;;;;;;;1.25;0.80;;;22.40;44.80;;;;;;5136818;27;20108;-11
2022/10/06 07:35:22;;;;;;;1.10;1.00;;;22.30;44.90;;;;;;5136828;27;20103;-11
2022/10/06 07:37:50;;;;;;;1.08;0.98;;;22.40;45.10;;;;;;5136163;27;20138;-12
2022/10/06 07:40:16;;;;;;;2.38;0.98;;;22.30;45.20;;;;;;5137645;27;20513;-11
2022/10/06 07:42:50;;;;;;;0.85;0.85;;;22.30;45.20;;;;;;5138004;27;20051;-11
2022/10/06 07:45:40;;;;;;;0.98;0.88;;;22.30;45.30;;;;;;5138388;27;20106;-11
2022/10/06 07:48:20;;;;;;;1.45;1.00;;;22.30;45.40;;;;;;5138008;27;20133;-11
2022/10/06 07:50:51;;;;;;;0.93;0.80;;;22.20;45.40;;;;;;5138057;27;20043;-11
2022/10/06 07:53:37;;;;;;;0.95;0.80;;;22.20;45.50;;;;;;5135411;27;20051;-13
2022/10/06 07:56:22;;;;;;;0.80;0.80;;;22.10;45.50;;;;;;5154087;27;20464;-13
2022/10/06 07:58:51;;;;;;;0.90;0.90;;;22.10;45.50;;;;;;5136115;27;20046;-12
2022/10/06 08:01:19;;;;;;;0.93;0.85;;;22.10;45.60;;;;;;5154897;27;20043;-11
2022/10/06 08:03:47;;;;;;;1.33;1.10;;;22.10;45.60;;;;;;5154945;27;20466;-11
2022/10/06 08:06:15;;;;;;;1.75;0.95;;;22.10;45.70;;;;;;5155048;27;20058;-12
2022/10/06 08:08:43;;;;;;;1.02;0.82;;;22.00;45.70;;;;;;5155691;27;20379;-11
2022/10/06 08:11:10;;;;;;;1.25;0.90;;;22.00;45.70;;;;;;5155766;27;20053;-11
2022/10/06 08:13:37;;;;;;;0.93;0.80;;;22.00;45.80;;;;;;5155764;27;20057;-11
2022/10/06 08:16:13;;;;;;;1.65;1.08;;;22.00;45.80;;;;;;5155724;27;20559;-11
2022/10/06 08:18:40;;;;;;;1.48;0.73;;;21.90;45.90;;;;;;5155682;27;20524;-11
2022/10/06 08:21:15;;;;;;;0.70;0.70;;;21.90;45.90;;;;;;5155988;27;20047;-11
2022/10/06 08:23:42;;;;;;;1.05;0.80;;;21.90;46.00;;;;;;5155679;27;20184;-11
2022/10/06 08:26:12;;;;;;;1.20;0.93;;;21.80;46.20;;;;;;5155601;27;20055;-11
2022/10/06 08:28:41;;;;;;;1.65;1.15;;;21.80;46.40;;;;;;5155823;27;20137;-11
2022/10/06 08:31:10;;;;;;;1.88;1.10;;;21.80;46.60;;;;;;5155441;27;20062;-11
2022/10/06 08:33:41;;;;;;;0.95;0.80;;;21.80;46.90;;;;;;5155501;27;20058;-11
2022/10/06 08:36:18;;;;;;;1.25;0.90;;;21.70;46.90;;;;;;5155638;27;20085;-11
2022/10/06 08:38:49;;;;;;;2.45;1.17;;;21.80;47.40;;;;;;5155014;27;20474;-11
2022/10/06 08:41:38;;;;;;;2.25;1.08;;;21.80;46.90;;;;;;5155340;27;20042;-11
2022/10/06 08:44:18;;;;;;;1.35;1.10;;;21.70;46.90;;;;;;5155152;27;20129;-11
2022/10/06 08:47:02;;;;;;;3.08;0.90;;;21.70;47.10;;;;;;5155183;27;20053;-11
2022/10/06 08:49:38;;;;;;;2.55;1.10;;;21.70;47.20;;;;;;5155269;27;20054;-11
2022/10/06 08:52:29;;;;;;;1.20;1.00;;;21.60;47.40;;;;;;5155226;27;20413;-11
2022/10/06 08:54:57;;;;;;;2.53;0.93;;;21.60;47.30;;;;;;5154902;27;20043;-11
2022/10/06 08:57:38;;;;;;;2.55;1.08;;;21.60;47.40;;;;;;5154877;27;20046;-10
2022/10/06 09:00:11;;;;;;;1.67;1.10;;;21.60;47.50;;;;;;5155121;27;20042;-11
2022/10/06 09:02:41;;;;;;;1.67;1.10;;;21.50;47.70;;;;;;5155082;27;20078;-11
2022/10/06 09:05:11;;;;;;;1.70;1.20;;;21.50;47.70;;;;;;5154719;27;20113;-11
2022/10/06 09:07:57;;;;;;;1.65;1.00;;;21.50;47.80;;;;;;5155099;27;20046;-11
2022/10/06 09:10:29;;;;;;;1.85;1.10;;;21.50;47.80;;;;;;5154779;27;20050;-11
2022/10/06 09:13:21;;;;;;;4.47;1.40;;;21.50;47.90;;;;;;5155187;27;20051;-11
2022/10/06 09:15:57;;;;;;;3.85;1.23;;;21.50;47.90;;;;;;5154690;27;20101;-11
2022/10/06 09:18:36;;;;;;;1.77;0.98;;;21.40;48.00;;;;;;5155148;27;20129;-11
2022/10/06 09:21:08;;;;;;;3.22;1.25;;;21.50;48.00;;;;;;5153920;27;20131;-11
2022/10/06 09:23:46;;;;;;;1.60;1.00;;;21.50;48.00;;;;;;5134250;27;20134;-12
2022/10/06 09:26:21;;;;;;;2.20;1.10;;;21.50;47.90;;;;;;5152093;27;20082;-11
2022/10/06 09:28:51;;;;;;;3.20;1.10;;;21.50;47.90;;;;;;5150709;27;20610;-12
2022/10/06 09:31:27;;;;;;;2.42;1.15;;;21.50;47.80;;;;;;5154036;27;20050;-11
2022/10/06 09:33:58;;;;;;;3.42;1.30;;;21.50;47.80;;;;;;5153430;27;20061;-11
2022/10/06 09:36:24;;;;;;;2.13;1.05;;;21.50;47.80;;;;;;5155050;27;20461;-11
2022/10/06 09:38:52;;;;;;;3.45;1.17;;;21.50;47.70;;;;;;5152906;27;20098;-13
2022/10/06 09:41:39;;;;;;;2.83;1.20;;;21.50;47.70;;;;;;5151237;27;20106;-13
2022/10/06 09:44:20;;;;;;;3.72;1.17;;;21.50;47.70;;;;;;5152499;27;20114;-11
2022/10/06 09:46:46;;;;;;;3.92;1.40;;;21.50;47.70;;;;;;5137232;27;20046;-11
2022/10/06 09:49:17;;;;;;;2.10;1.30;;;21.50;47.70;;;;;;5132673;28;20558;-11
2022/10/06 09:51:59;;;;;;;3.10;1.25;;;21.50;47.70;;;;;;5132915;28;20047;-11
2022/10/06 09:54:27;;;;;;;2.50;1.17;;;21.50;47.80;;;;;;5133288;28;20479;-11
2022/10/06 09:56:54;;;;;;;1.88;1.20;;;21.50;47.70;;;;;;5133517;28;20051;-12
2022/10/06 09:59:28;;;;;;;2.45;1.27;;;21.50;47.70;;;;;;5133740;28;20050;-12
2022/10/06 10:01:56;;;;;;;2.55;1.20;;;21.50;47.70;;;;;;5133492;28;20058;-11
2022/10/06 10:04:31;;;;;;;1.75;1.20;;;21.50;47.70;;;;;;5133506;28;20487;-11
2022/10/06 10:07:24;;;;;;;2.08;1.10;;;21.50;47.70;;;;;;5133560;28;20059;-11
2022/10/06 10:09:51;;;;;;;4.78;1.23;;;21.60;47.70;;;;;;5133484;28;20050;-11
2022/10/06 10:12:23;;;;;;;3.00;1.08;;;21.50;47.80;;;;;;5133460;28;20082;-11
2022/10/06 10:15:02;;;;;;;2.55;1.15;;;21.60;48.00;;;;;;5133364;28;20051;-11
2022/10/06 10:17:28;;;;;;;3.25;1.10;;;21.50;47.90;;;;;;5133107;28;20190;-11
2022/10/06 10:19:54;;;;;;;4.28;1.25;;;21.50;47.90;;;;;;5133269;28;20063;-11
2022/10/06 10:22:29;;;;;;;1.67;1.05;;;21.50;47.90;;;;;;5133350;28;20132;-11
2022/10/06 10:25:25;;;;;;;3.55;1.25;;;21.50;48.50;;;;;;5133348;28;20138;-11
2022/10/06 10:27:57;;;;;;;6.55;1.38;;;21.50;47.90;;;;;;5132996;28;20051;-11
2022/10/06 10:30:23;;;;;;;3.78;1.25;;;21.50;47.90;;;;;;5132838;28;20051;-11
2022/10/06 10:32:59;;;;;;;2.75;1.33;;;21.60;47.90;;;;;;5132900;28;20055;-10
2022/10/06 10:35:47;;;;;;;1.48;1.10;;;21.60;47.90;;;;;;5133443;28;20054;-11
2022/10/06 10:38:21;;;;;;;2.17;1.23;;;21.60;47.90;;;;;;5133224;28;20125;-11
2022/10/06 10:41:05;;;;;;;2.58;1.40;;;21.60;47.90;;;;;;5114929;28;20364;-11
2022/10/06 10:43:54;;;;;;;2.90;1.20;;;21.60;47.90;;;;;;5114546;28;20084;-12
2022/10/06 10:46:38;;;;;;;2.40;1.23;;;21.60;47.90;;;;;;5133031;28;20099;-11
2022/10/06 10:49:14;;;;;;;4.00;1.42;;;21.60;47.90;;;;;;5132810;28;20134;-11
2022/10/06 10:51:57;;;;;;;2.72;1.20;;;21.60;47.80;;;;;;5132692;28;20491;-11
2022/10/06 10:54:55;;;;;;;2.55;1.13;;;21.70;47.80;;;;;;5136288;28;20134;-11
2022/10/06 10:57:29;;;;;;;3.08;1.20;;;21.60;47.80;;;;;;5136332;28;20099;-11
2022/10/06 11:00:02;;;;;;;2.53;1.23;;;21.60;47.80;;;;;;5136515;28;20442;-11
2022/10/06 11:02:29;;;;;;;3.17;1.38;;;21.60;47.80;;;;;;5136402;28;20055;-11
2022/10/06 11:05:14;;;;;;;2.88;1.50;;;21.60;47.80;;;;;;5136391;28;20074;-11
2022/10/06 11:07:50;;;;;;;5.55;1.63;;;21.60;47.80;;;;;;5136357;28;20050;-11
2022/10/06 11:10:26;;;;;;;2.72;1.20;;;21.60;47.90;;;;;;5136070;28;20108;-11
2022/10/06 11:13:15;;;;;;;4.38;1.50;;;21.60;47.90;;;;;;5135412;28;20134;-12
2022/10/06 11:15:55;;;;;;;2.67;1.40;;;21.60;47.90;;;;;;5133952;28;20054;-12
2022/10/06 11:18:45;;;;;;;2.80;1.10;;;21.60;47.90;;;;;;5135880;28;20055;-11
2022/10/06 11:21:33;;;;;;;2.42;1.10;;;21.60;47.90;;;;;;5135485;28;20051;-13
2022/10/06 11:24:28;;;;;;;4.88;1.30;;;21.60;48.40;;;;;;5115507;28;20043;-10
2022/10/06 11:27:25;;;;;;;5.00;1.60;;;21.60;47.90;;;;;;5135852;28;20050;-10
2022/10/06 11:30:25;;;;;;;3.95;1.52;;;21.60;48.00;;;;;;5118149;28;20047;-11
2022/10/06 11:33:13;;;;;;;3.53;1.50;;;21.60;47.90;;;;;;5134328;28;20051;-12
2022/10/06 11:35:43;;;;;;;2.85;1.55;;;21.60;47.90;;;;;;5133416;28;20445;-12
2022/10/06 11:38:30;;;;;;;2.78;1.50;;;21.60;47.90;;;;;;5133488;28;20403;-11
2022/10/06 11:41:14;;;;;;;3.15;1.40;;;21.60;47.90;;;;;;5133743;28;20123;-12
2022/10/06 11:43:48;;;;;;;4.78;1.52;;;21.70;47.90;;;;;;5135821;28;20043;-12
2022/10/06 11:46:33;;;;;;;1.95;0.98;;;21.70;47.80;;;;;;5135501;28;20043;-11
2022/10/06 11:49:31;;;;;;;2.22;1.33;;;21.60;47.80;;;;;;5135291;28;20463;-11
2022/10/06 11:52:17;;;;;;;2.92;1.55;;;21.60;47.80;;;;;;5135699;28;20479;-11
2022/10/06 11:54:54;;;;;;;4.35;1.75;;;21.60;47.80;;;;;;5135031;28;20062;-11
2022/10/06 11:57:25;;;;;;;4.13;1.05;;;21.60;47.80;;;;;;5117078;28;20104;-11
2022/10/06 11:59:55;;;;;;;4.97;1.50;;;21.70;47.80;;;;;;5134651;28;20467;-12
2022/10/06 12:02:36;;;;;;;2.20;1.10;;;21.60;47.80;;;;;;5134993;28;20491;-11
2022/10/06 12:05:09;;;;;;;1.80;1.27;;;21.70;47.80;;;;;;5135068;27;20444;-11
2022/10/06 12:07:53;;;;;;;5.88;1.55;;;21.70;47.80;;;;;;5131885;28;20130;-11
2022/10/06 12:10:28;;;;;;;2.80;1.30;;;21.70;47.70;;;;;;5135277;28;20050;-10
2022/10/06 12:13:12;;;;;;;4.22;1.40;;;21.60;47.70;;;;;;5135240;28;20407;-10
2022/10/06 12:16:20;;;;;;;5.20;1.50;;;21.70;47.80;;;;;;5135099;28;20047;-10
2022/10/06 12:19:07;;;;;;;3.30;1.50;;;21.70;47.70;;;;;;5133541;28;20070;-12
2022/10/06 12:21:44;;;;;;;3.70;1.30;;;21.60;47.70;;;;;;5132728;28;20047;-11
2022/10/06 12:24:31;;;;;;;2.90;1.38;;;21.70;47.80;;;;;;5133373;28;20134;-12
2022/10/06 12:27:22;;;;;;;2.58;1.10;;;21.60;47.80;;;;;;5133379;28;20090;-11
2022/10/06 12:29:54;;;;;;;2.23;1.30;;;21.60;47.80;;;;;;5133986;28;20061;-13
2022/10/06 12:32:45;;;;;;;3.30;1.40;;;21.60;47.90;;;;;;5134168;28;20387;-10
2022/10/06 12:35:15;;;;;;;;;;;21.60;47.90;;;;;;5135272;28;20479;-11
2022/10/06 12:37:46;;;;;;;4.45;1.10;;;21.60;47.90;;;;;;5134825;28;19923;-12
2022/10/06 12:40:48;;;;;;;2.92;1.27;;;21.60;47.90;;;;;;5134446;28;20055;-11
2022/10/06 12:43:17;;;;;;;5.25;1.50;;;21.60;47.90;;;;;;5116140;28;20047;-12
2022/10/06 12:45:55;;;;;;;2.15;1.33;;;21.60;47.90;;;;;;5134614;28;20042;-11
2022/10/06 12:48:48;;;;;;;3.60;1.55;;;21.60;47.80;;;;;;5134892;28;20058;-12
2022/10/06 12:51:21;;;;;;;4.43;1.50;;;21.60;47.80;;;;;;5134866;28;20047;-11
2022/10/06 12:54:09;;;;;;;3.70;1.77;;;21.60;47.80;;;;;;5135109;28;20107;-11
2022/10/06 12:56:38;;;;;;;3.42;1.40;;;21.60;47.90;;;;;;5134891;28;20066;-12
2022/10/06 12:59:32;;;;;;;3.88;1.52;;;21.60;47.80;;;;;;5134102;28;20050;-11
2022/10/06 13:02:01;;;;;;;2.80;1.58;;;21.60;47.90;;;;;;5134151;28;20047;-13
2022/10/06 13:05:01;;;;;;;4.05;1.40;;;21.60;47.90;;;;;;5134620;28;20127;-10
2022/10/06 13:07:32;;;;;;;2.30;1.40;;;21.60;47.80;;;;;;5089574;28;20047;-10
2022/10/06 13:10:13;;;;;;;2.72;1.20;;;21.60;47.80;;;;;;5134586;28;20039;-10
2022/10/06 13:12:49;;;;;;;3.38;1.40;;;21.50;47.80;;;;;;5135061;28;20433;-10
2022/10/06 13:15:22;;;;;;;7.70;1.48;;;21.50;47.80;;;;;;5134266;27;20046;-11
2022/10/06 13:17:54;;;;;;;3.25;1.38;;;21.50;48.30;;;;;;5133972;28;20074;-11
2022/10/06 13:20:35;;;;;;;5.68;1.88;;;21.50;47.70;;;;;;5134219;28;20043;-11
2022/10/06 13:23:21;;;;;;;2.30;1.52;;;21.60;47.80;;;;;;5134257;28;20069;-11